sensor_id;sensor_type;location;lat;lon;timestamp;pressure;altitude;pressure_sealevel;temperature;humidity
79544;BME280;68994;47.176;7.534;2023-04-24T00:01:18;95320.06;;;8.29;81.66
79544;BME280;68994;47.176;7.534;2023-04-24T00:03:45;95314.50;;;8.30;82.33
79544;BME280;68994;47.176;7.534;2023-04-24T00:06:11;95320.34;;;8.27;82.95
79544;BME280;68994;47.176;7.534;2023-04-24T00:08:38;95327.28;;;8.39;81.24
79544;BME280;68994;47.176;7.534;2023-04-24T00:11:06;95324.84;;;8.27;81.87
79544;BME280;68994;47.176;7.534;2023-04-24T00:13:33;95342.69;;;8.31;81.40
79544;BME280;68994;47.176;7.534;2023-04-24T00:15:59;95342.47;;;8.38;81.58
79544;BME280;68994;47.176;7.534;2023-04-24T00:18:26;95333.94;;;8.41;80.55
79544;BME280;68994;47.176;7.534;2023-04-24T00:20:53;95349.59;;;8.32;82.07
79544;BME280;68994;47.176;7.534;2023-04-24T00:23:19;95345.63;;;8.35;82.17
79544;BME280;68994;47.176;7.534;2023-04-24T00:25:46;95352.84;;;8.40;80.57
79544;BME280;68994;47.176;7.534;2023-04-24T00:28:14;95349.88;;;8.36;81.53
79544;BME280;68994;47.176;7.534;2023-04-24T00:30:40;95356.25;;;8.35;82.06
79544;BME280;68994;47.176;7.534;2023-04-24T00:33:07;95347.75;;;8.33;82.18
79544;BME280;68994;47.176;7.534;2023-04-24T00:35:34;95363.47;;;8.40;81.17
79544;BME280;68994;47.176;7.534;2023-04-24T00:38:00;95357.88;;;8.41;80.20
79544;BME280;68994;47.176;7.534;2023-04-24T00:40:28;95365.31;;;8.39;81.06
79544;BME280;68994;47.176;7.534;2023-04-24T00:42:54;95360.63;;;8.51;79.91
79544;BME280;68994;47.176;7.534;2023-04-24T00:45:23;95362.69;;;8.44;79.82
79544;BME280;68994;47.176;7.534;2023-04-24T00:47:52;95351.31;;;8.54;79.56
79544;BME280;68994;47.176;7.534;2023-04-24T00:50:20;95349.66;;;8.43;80.47
79544;BME280;68994;47.176;7.534;2023-04-24T00:52:47;95351.47;;;8.37;80.49
79544;BME280;68994;47.176;7.534;2023-04-24T00:55:14;95356.50;;;8.28;81.07
79544;BME280;68994;47.176;7.534;2023-04-24T00:57:41;95351.69;;;8.25;81.30
79544;BME280;68994;47.176;7.534;2023-04-24T01:00:09;95357.81;;;8.26;81.51
79544;BME280;68994;47.176;7.534;2023-04-24T01:02:39;95347.44;;;8.24;81.53
79544;BME280;68994;47.176;7.534;2023-04-24T01:05:09;95343.66;;;8.15;81.60
79544;BME280;68994;47.176;7.534;2023-04-24T01:07:37;95337.34;;;8.21;82.32
79544;BME280;68994;47.176;7.534;2023-04-24T01:10:05;95332.84;;;8.27;81.29
79544;BME280;68994;47.176;7.534;2023-04-24T01:12:33;95337.03;;;8.17;82.23
79544;BME280;68994;47.176;7.534;2023-04-24T01:15:00;95333.56;;;8.12;82.49
79544;BME280;68994;47.176;7.534;2023-04-24T01:17:27;95333.25;;;8.03;82.63
79544;BME280;68994;47.176;7.534;2023-04-24T01:19:55;95326.00;;;7.93;82.62
79544;BME280;68994;47.176;7.534;2023-04-24T01:22:24;95327.66;;;7.99;83.08
79544;BME280;68994;47.176;7.534;2023-04-24T01:24:51;95331.34;;;7.98;83.16
79544;BME280;68994;47.176;7.534;2023-04-24T01:27:18;95331.88;;;8.01;82.94
79544;BME280;68994;47.176;7.534;2023-04-24T01:29:45;95323.91;;;8.01;82.50
79544;BME280;68994;47.176;7.534;2023-04-24T01:32:13;95328.19;;;8.02;82.59
79544;BME280;68994;47.176;7.534;2023-04-24T01:34:40;95320.53;;;8.10;80.56
79544;BME280;68994;47.176;7.534;2023-04-24T01:37:07;95319.13;;;8.03;81.24
79544;BME280;68994;47.176;7.534;2023-04-24T01:39:35;95317.59;;;8.12;80.81
79544;BME280;68994;47.176;7.534;2023-04-24T01:42:01;95318.41;;;8.12;81.06
79544;BME280;68994;47.176;7.534;2023-04-24T01:44:28;95335.69;;;8.10;81.92
79544;BME280;68994;47.176;7.534;2023-04-24T01:46:55;95325.59;;;8.12;81.50
79544;BME280;68994;47.176;7.534;2023-04-24T01:49:22;95321.34;;;8.16;81.66
79544;BME280;68994;47.176;7.534;2023-04-24T01:51:48;95312.56;;;8.15;81.20
79544;BME280;68994;47.176;7.534;2023-04-24T01:54:15;95314.41;;;8.10;82.77
79544;BME280;68994;47.176;7.534;2023-04-24T01:56:43;95323.94;;;8.06;82.69
79544;BME280;68994;47.176;7.534;2023-04-24T01:59:11;95320.81;;;8.14;81.83
79544;BME280;68994;47.176;7.534;2023-04-24T02:01:38;95330.63;;;8.13;82.55
79544;BME280;68994;47.176;7.534;2023-04-24T02:04:07;95323.97;;;8.11;82.27
79544;BME280;68994;47.176;7.534;2023-04-24T02:06:34;95317.59;;;8.12;81.96
79544;BME280;68994;47.176;7.534;2023-04-24T02:09:01;95326.88;;;8.09;82.40
79544;BME280;68994;47.176;7.534;2023-04-24T02:11:28;95323.16;;;8.05;82.80
79544;BME280;68994;47.176;7.534;2023-04-24T02:13:56;95325.28;;;8.03;82.95
79544;BME280;68994;47.176;7.534;2023-04-24T02:16:22;95320.75;;;8.04;82.53
79544;BME280;68994;47.176;7.534;2023-04-24T02:18:50;95317.06;;;8.05;82.25
79544;BME280;68994;47.176;7.534;2023-04-24T02:21:16;95322.38;;;8.05;82.93
79544;BME280;68994;47.176;7.534;2023-04-24T02:23:43;95328.47;;;8.05;82.66
79544;BME280;68994;47.176;7.534;2023-04-24T02:26:10;95325.56;;;8.07;82.27
79544;BME280;68994;47.176;7.534;2023-04-24T02:28:37;95337.22;;;8.06;83.81
79544;BME280;68994;47.176;7.534;2023-04-24T02:31:05;95342.81;;;8.04;82.65
79544;BME280;68994;47.176;7.534;2023-04-24T02:33:32;95333.00;;;8.05;82.87
79544;BME280;68994;47.176;7.534;2023-04-24T02:35:58;95327.41;;;8.06;82.84
79544;BME280;68994;47.176;7.534;2023-04-24T02:38:25;95317.31;;;8.08;82.85
79544;BME280;68994;47.176;7.534;2023-04-24T02:40:52;95329.84;;;8.13;82.15
79544;BME280;68994;47.176;7.534;2023-04-24T02:43:19;95329.28;;;8.11;82.68
79544;BME280;68994;47.176;7.534;2023-04-24T02:45:45;95329.28;;;8.11;82.85
79544;BME280;68994;47.176;7.534;2023-04-24T02:48:13;95336.78;;;8.19;82.05
79544;BME280;68994;47.176;7.534;2023-04-24T02:50:40;95330.44;;;8.25;82.15
79544;BME280;68994;47.176;7.534;2023-04-24T02:53:06;95338.16;;;8.27;81.63
79544;BME280;68994;47.176;7.534;2023-04-24T02:55:33;95335.19;;;8.18;81.96
79544;BME280;68994;47.176;7.534;2023-04-24T02:58:00;95328.25;;;8.12;82.20
79544;BME280;68994;47.176;7.534;2023-04-24T03:00:26;95325.81;;;8.05;83.38
79544;BME280;68994;47.176;7.534;2023-04-24T03:02:53;95333.78;;;8.05;82.28
79544;BME280;68994;47.176;7.534;2023-04-24T03:05:21;95332.75;;;8.06;83.49
79544;BME280;68994;47.176;7.534;2023-04-24T03:07:48;95338.88;;;8.12;82.71
79544;BME280;68994;47.176;7.534;2023-04-24T03:10:15;95334.56;;;8.06;83.19
79544;BME280;68994;47.176;7.534;2023-04-24T03:12:41;95335.13;;;8.08;84.09
79544;BME280;68994;47.176;7.534;2023-04-24T03:15:09;95336.97;;;8.07;83.47
79544;BME280;68994;47.176;7.534;2023-04-24T03:17:35;95342.03;;;8.09;83.86
79544;BME280;68994;47.176;7.534;2023-04-24T03:20:03;95334.56;;;8.06;84.37
79544;BME280;68994;47.176;7.534;2023-04-24T03:22:32;95334.59;;;8.11;83.21
79544;BME280;68994;47.176;7.534;2023-04-24T03:24:59;95341.03;;;8.20;83.01
79544;BME280;68994;47.176;7.534;2023-04-24T03:27:25;95328.75;;;8.09;82.81
79544;BME280;68994;47.176;7.534;2023-04-24T03:29:52;95319.72;;;8.05;83.74
79544;BME280;68994;47.176;7.534;2023-04-24T03:32:20;95314.94;;;8.12;82.26
79544;BME280;68994;47.176;7.534;2023-04-24T03:34:47;95315.22;;;8.10;82.45
79544;BME280;68994;47.176;7.534;2023-04-24T03:37:13;95325.00;;;7.99;83.24
79544;BME280;68994;47.176;7.534;2023-04-24T03:39:41;95318.28;;;7.87;84.50
79544;BME280;68994;47.176;7.534;2023-04-24T03:42:08;95315.91;;;7.90;83.99
79544;BME280;68994;47.176;7.534;2023-04-24T03:44:35;95330.31;;;7.99;82.64
79544;BME280;68994;47.176;7.534;2023-04-24T03:47:01;95327.63;;;7.94;83.78
79544;BME280;68994;47.176;7.534;2023-04-24T03:49:28;95329.22;;;7.95;83.78
79544;BME280;68994;47.176;7.534;2023-04-24T03:51:54;95327.88;;;7.93;83.81
79544;BME280;68994;47.176;7.534;2023-04-24T03:54:21;95334.56;;;8.06;82.90
79544;BME280;68994;47.176;7.534;2023-04-24T03:56:49;95335.31;;;7.96;84.58
79544;BME280;68994;47.176;7.534;2023-04-24T03:59:16;95336.13;;;7.96;84.02
79544;BME280;68994;47.176;7.534;2023-04-24T04:01:42;95338.03;;;8.01;84.13
79544;BME280;68994;47.176;7.534;2023-04-24T04:04:09;95344.13;;;8.02;84.30
79544;BME280;68994;47.176;7.534;2023-04-24T04:06:36;95326.63;;;8.11;83.39
79544;BME280;68994;47.176;7.534;2023-04-24T04:09:02;95322.09;;;8.06;83.51
79544;BME280;68994;47.176;7.534;2023-04-24T04:11:29;95332.94;;;7.94;83.56
79544;BME280;68994;47.176;7.534;2023-04-24T04:13:57;95336.84;;;7.82;84.66
79544;BME280;68994;47.176;7.534;2023-04-24T04:16:24;95340.22;;;7.72;85.77
79544;BME280;68994;47.176;7.534;2023-04-24T04:18:50;95329.84;;;7.70;85.49
79544;BME280;68994;47.176;7.534;2023-04-24T04:21:17;95333.28;;;7.71;85.84
79544;BME280;68994;47.176;7.534;2023-04-24T04:23:44;95345.25;;;7.68;86.47
79544;BME280;68994;47.176;7.534;2023-04-24T04:26:11;95335.47;;;7.79;84.16
79544;BME280;68994;47.176;7.534;2023-04-24T04:28:37;95334.38;;;7.70;84.79
79544;BME280;68994;47.176;7.534;2023-04-24T04:31:06;95343.34;;;7.64;85.18
79544;BME280;68994;47.176;7.534;2023-04-24T04:33:33;95346.84;;;7.69;83.33
79544;BME280;68994;47.176;7.534;2023-04-24T04:36:01;95350.06;;;7.71;84.04
79544;BME280;68994;47.176;7.534;2023-04-24T04:38:28;95345.03;;;7.75;84.89
79544;BME280;68994;47.176;7.534;2023-04-24T04:40:55;95341.81;;;7.73;85.14
79544;BME280;68994;47.176;7.534;2023-04-24T04:43:23;95354.59;;;7.76;85.79
79544;BME280;68994;47.176;7.534;2023-04-24T04:45:49;95358.84;;;7.77;85.94
79544;BME280;68994;47.176;7.534;2023-04-24T04:48:18;95359.94;;;7.81;85.48
79544;BME280;68994;47.176;7.534;2023-04-24T04:50:44;95360.53;;;7.93;84.69
79544;BME280;68994;47.176;7.534;2023-04-24T04:53:11;95364.22;;;7.87;85.33
79544;BME280;68994;47.176;7.534;2023-04-24T04:55:38;95370.66;;;7.96;85.12
79544;BME280;68994;47.176;7.534;2023-04-24T04:58:04;95378.09;;;7.94;85.50
79544;BME280;68994;47.176;7.534;2023-04-24T05:00:31;95380.47;;;7.96;85.68
79544;BME280;68994;47.176;7.534;2023-04-24T05:03:01;95384.44;;;7.88;85.91
79544;BME280;68994;47.176;7.534;2023-04-24T05:05:29;95396.25;;;8.08;84.70
79544;BME280;68994;47.176;7.534;2023-04-24T05:07:55;95396.69;;;7.94;85.88
79544;BME280;68994;47.176;7.534;2023-04-24T05:10:22;95398.31;;;8.01;85.11
79544;BME280;68994;47.176;7.534;2023-04-24T05:12:49;95410.56;;;8.02;85.32
79544;BME280;68994;47.176;7.534;2023-04-24T05:15:15;95403.31;;;7.92;85.68
79544;BME280;68994;47.176;7.534;2023-04-24T05:17:42;95409.97;;;7.94;85.81
79544;BME280;68994;47.176;7.534;2023-04-24T05:20:09;95414.22;;;7.95;86.00
79544;BME280;68994;47.176;7.534;2023-04-24T05:22:37;95417.13;;;7.94;86.14
79544;BME280;68994;47.176;7.534;2023-04-24T05:25:04;95422.81;;;8.08;84.74
79544;BME280;68994;47.176;7.534;2023-04-24T05:27:31;95421.00;;;8.13;83.97
79544;BME280;68994;47.176;7.534;2023-04-24T05:29:57;95436.38;;;8.06;85.84
79544;BME280;68994;47.176;7.534;2023-04-24T05:32:24;95431.84;;;8.07;85.09
79544;BME280;68994;47.176;7.534;2023-04-24T05:34:52;95435.56;;;8.11;84.89
79544;BME280;68994;47.176;7.534;2023-04-24T05:37:18;95428.72;;;8.15;84.70
79544;BME280;68994;47.176;7.534;2023-04-24T05:39:47;95431.19;;;8.27;84.08
79544;BME280;68994;47.176;7.534;2023-04-24T05:42:13;95435.13;;;8.24;84.10
79544;BME280;68994;47.176;7.534;2023-04-24T05:44:40;95437.25;;;8.22;84.98
79544;BME280;68994;47.176;7.534;2023-04-24T05:47:06;95439.19;;;8.32;85.89
79544;BME280;68994;47.176;7.534;2023-04-24T05:49:33;95439.50;;;8.41;85.33
79544;BME280;68994;47.176;7.534;2023-04-24T05:51:59;95448.66;;;8.55;83.82
79544;BME280;68994;47.176;7.534;2023-04-24T05:54:26;95443.09;;;8.62;82.57
79544;BME280;68994;47.176;7.534;2023-04-24T05:56:54;95450.00;;;8.63;82.00
79544;BME280;68994;47.176;7.534;2023-04-24T05:59:21;95449.50;;;8.66;79.52
79544;BME280;68994;47.176;7.534;2023-04-24T06:01:47;95450.25;;;8.61;79.39
79544;BME280;68994;47.176;7.534;2023-04-24T06:04:14;95457.19;;;8.62;80.86
79544;BME280;68994;47.176;7.534;2023-04-24T06:06:41;95461.47;;;8.63;79.75
79544;BME280;68994;47.176;7.534;2023-04-24T06:09:07;95477.41;;;8.58;80.22
79544;BME280;68994;47.176;7.534;2023-04-24T06:11:34;95452.38;;;8.54;78.63
79544;BME280;68994;47.176;7.534;2023-04-24T06:14:02;95467.53;;;8.53;79.08
79544;BME280;68994;47.176;7.534;2023-04-24T06:16:29;95462.88;;;8.39;79.95
79544;BME280;68994;47.176;7.534;2023-04-24T06:18:56;95466.34;;;8.39;78.55
79544;BME280;68994;47.176;7.534;2023-04-24T06:21:23;95468.69;;;8.30;79.22
79544;BME280;68994;47.176;7.534;2023-04-24T06:23:50;95462.84;;;8.33;77.70
79544;BME280;68994;47.176;7.534;2023-04-24T06:26:17;95458.53;;;8.22;78.06
79544;BME280;68994;47.176;7.534;2023-04-24T06:28:43;95462.72;;;8.13;80.18
79544;BME280;68994;47.176;7.534;2023-04-24T06:31:11;95454.50;;;8.14;79.80
79544;BME280;68994;47.176;7.534;2023-04-24T06:33:38;95441.38;;;8.03;79.87
79544;BME280;68994;47.176;7.534;2023-04-24T06:36:05;95455.94;;;8.32;78.16
79544;BME280;68994;47.176;7.534;2023-04-24T06:38:31;95462.34;;;8.36;79.33
79544;BME280;68994;47.176;7.534;2023-04-24T06:40:59;95466.66;;;8.43;78.00
79544;BME280;68994;47.176;7.534;2023-04-24T06:43:25;95459.03;;;8.57;75.72
79544;BME280;68994;47.176;7.534;2023-04-24T06:45:52;95463.06;;;8.64;76.95
79544;BME280;68994;47.176;7.534;2023-04-24T06:48:20;95458.31;;;8.71;75.47
79544;BME280;68994;47.176;7.534;2023-04-24T06:50:46;95474.31;;;8.77;78.92
79544;BME280;68994;47.176;7.534;2023-04-24T06:53:13;95472.16;;;8.73;77.70
79544;BME280;68994;47.176;7.534;2023-04-24T06:55:40;95475.06;;;8.72;79.35
79544;BME280;68994;47.176;7.534;2023-04-24T06:58:07;95470.53;;;8.72;79.00
79544;BME280;68994;47.176;7.534;2023-04-24T07:00:33;95474.34;;;8.82;77.12
79544;BME280;68994;47.176;7.534;2023-04-24T07:03:00;95474.91;;;8.94;75.07
79544;BME280;68994;47.176;7.534;2023-04-24T07:05:29;95481.34;;;9.03;77.15
79544;BME280;68994;47.176;7.534;2023-04-24T07:07:55;95476.78;;;8.94;78.22
79544;BME280;68994;47.176;7.534;2023-04-24T07:10:23;95492.81;;;9.14;75.59
79544;BME280;68994;47.176;7.534;2023-04-24T07:12:52;95487.56;;;9.35;75.29
79544;BME280;68994;47.176;7.534;2023-04-24T07:15:19;95489.22;;;9.56;72.87
79544;BME280;68994;47.176;7.534;2023-04-24T07:17:45;95495.34;;;9.57;72.44
79544;BME280;68994;47.176;7.534;2023-04-24T07:20:12;95500.13;;;9.50;71.44
79544;BME280;68994;47.176;7.534;2023-04-24T07:22:41;95497.69;;;9.33;70.98
79544;BME280;68994;47.176;7.534;2023-04-24T07:25:08;95507.41;;;9.06;72.23
79544;BME280;68994;47.176;7.534;2023-04-24T07:27:35;95504.19;;;8.94;72.15
79544;BME280;68994;47.176;7.534;2023-04-24T07:30:02;95499.31;;;8.81;72.68
79544;BME280;68994;47.176;7.534;2023-04-24T07:32:29;95507.03;;;8.82;73.46
79544;BME280;68994;47.176;7.534;2023-04-24T07:34:56;95507.38;;;8.96;71.62
79544;BME280;68994;47.176;7.534;2023-04-24T07:37:22;95507.72;;;9.10;72.17
79544;BME280;68994;47.176;7.534;2023-04-24T07:39:50;95518.16;;;9.27;68.12
79544;BME280;68994;47.176;7.534;2023-04-24T07:42:17;95515.25;;;9.34;70.96
79544;BME280;68994;47.176;7.534;2023-04-24T07:44:44;95518.22;;;9.47;67.75
79544;BME280;68994;47.176;7.534;2023-04-24T07:47:11;95522.53;;;9.54;64.84
79544;BME280;68994;47.176;7.534;2023-04-24T07:49:40;95534.50;;;9.61;67.96
79544;BME280;68994;47.176;7.534;2023-04-24T07:52:07;95530.75;;;9.47;65.29
79544;BME280;68994;47.176;7.534;2023-04-24T07:54:33;95532.84;;;9.40;66.02
79544;BME280;68994;47.176;7.534;2023-04-24T07:57:02;95548.06;;;9.50;64.06
79544;BME280;68994;47.176;7.534;2023-04-24T07:59:28;95553.34;;;9.39;67.11
79544;BME280;68994;47.176;7.534;2023-04-24T08:01:55;95552.53;;;9.34;65.36
79544;BME280;68994;47.176;7.534;2023-04-24T08:04:21;95559.19;;;9.36;66.00
79544;BME280;68994;47.176;7.534;2023-04-24T08:06:48;95575.16;;;9.36;65.71
79544;BME280;68994;47.176;7.534;2023-04-24T08:09:15;95570.31;;;9.23;65.85
79544;BME280;68994;47.176;7.534;2023-04-24T08:11:41;95588.41;;;9.21;70.40
79544;BME280;68994;47.176;7.534;2023-04-24T08:14:09;95587.94;;;8.86;71.75
79544;BME280;68994;47.176;7.534;2023-04-24T08:16:38;95587.00;;;8.65;74.01
79544;BME280;68994;47.176;7.534;2023-04-24T08:19:04;95582.50;;;8.66;74.68
79544;BME280;68994;47.176;7.534;2023-04-24T08:21:31;95597.97;;;8.74;75.81
79544;BME280;68994;47.176;7.534;2023-04-24T08:23:58;95611.34;;;8.84;72.26
79544;BME280;68994;47.176;7.534;2023-04-24T08:26:24;95617.06;;;9.03;73.31
79544;BME280;68994;47.176;7.534;2023-04-24T08:28:51;95607.63;;;9.28;69.44
79544;BME280;68994;47.176;7.534;2023-04-24T08:31:19;95599.16;;;9.41;72.37
79544;BME280;68994;47.176;7.534;2023-04-24T08:33:45;95621.91;;;9.70;70.27
79544;BME280;68994;47.176;7.534;2023-04-24T08:36:12;95613.44;;;9.83;73.49
79544;BME280;68994;47.176;7.534;2023-04-24T08:38:39;95611.88;;;9.92;69.58
79544;BME280;68994;47.176;7.534;2023-04-24T08:41:06;95613.75;;;10.02;68.38
79544;BME280;68994;47.176;7.534;2023-04-24T08:43:34;95614.59;;;10.28;66.98
79544;BME280;68994;47.176;7.534;2023-04-24T08:46:03;95624.00;;;10.51;64.95
79544;BME280;68994;47.176;7.534;2023-04-24T08:48:31;95630.41;;;10.55;63.45
79544;BME280;68994;47.176;7.534;2023-04-24T08:50:59;95634.66;;;10.46;64.22
79544;BME280;68994;47.176;7.534;2023-04-24T08:53:27;95639.47;;;10.49;61.62
79544;BME280;68994;47.176;7.534;2023-04-24T08:55:55;95648.53;;;10.64;61.39
79544;BME280;68994;47.176;7.534;2023-04-24T08:58:22;95636.56;;;10.61;63.59
79544;BME280;68994;47.176;7.534;2023-04-24T09:00:51;95633.63;;;10.73;59.87
79544;BME280;68994;47.176;7.534;2023-04-24T09:03:18;95637.06;;;10.94;66.69
79544;BME280;68994;47.176;7.534;2023-04-24T09:05:48;95632.00;;;11.03;64.16
79544;BME280;68994;47.176;7.534;2023-04-24T09:08:18;95623.97;;;11.08;64.47
79544;BME280;68994;47.176;7.534;2023-04-24T09:10:45;95611.16;;;11.15;59.98
79544;BME280;68994;47.176;7.534;2023-04-24T09:13:13;95611.13;;;11.20;56.59
79544;BME280;68994;47.176;7.534;2023-04-24T09:15:40;95616.97;;;11.27;54.20
79544;BME280;68994;47.176;7.534;2023-04-24T09:18:07;95622.59;;;11.41;57.36
79544;BME280;68994;47.176;7.534;2023-04-24T09:20:33;95618.28;;;11.45;58.58
79544;BME280;68994;47.176;7.534;2023-04-24T09:23:02;95626.78;;;11.58;57.00
79544;BME280;68994;47.176;7.534;2023-04-24T09:25:31;95604.28;;;12.29;57.51
79544;BME280;68994;47.176;7.534;2023-04-24T09:28:00;95615.22;;;13.79;52.12
79544;BME280;68994;47.176;7.534;2023-04-24T09:30:28;95600.69;;;15.83;52.48
79544;BME280;68994;47.176;7.534;2023-04-24T09:33:10;95592.34;;;17.34;42.03
79544;BME280;68994;47.176;7.534;2023-04-24T09:35:40;95597.88;;;18.52;38.92
79544;BME280;68994;47.176;7.534;2023-04-24T09:38:08;95605.97;;;19.91;38.63
79544;BME280;68994;47.176;7.534;2023-04-24T09:40:35;95595.03;;;20.38;35.21
79544;BME280;68994;47.176;7.534;2023-04-24T09:43:02;95601.25;;;21.26;33.59
79544;BME280;68994;47.176;7.534;2023-04-24T09:45:35;95607.19;;;20.74;34.76
79544;BME280;68994;47.176;7.534;2023-04-24T09:48:01;95591.44;;;20.88;30.50
79544;BME280;68994;47.176;7.534;2023-04-24T09:50:30;95593.00;;;21.68;34.38
79544;BME280;68994;47.176;7.534;2023-04-24T09:52:58;95605.41;;;22.19;30.31
79544;BME280;68994;47.176;7.534;2023-04-24T09:55:26;95594.50;;;22.44;30.01
79544;BME280;68994;47.176;7.534;2023-04-24T09:57:54;95607.19;;;22.52;31.65
79544;BME280;68994;47.176;7.534;2023-04-24T10:00:22;95610.66;;;21.87;26.31
79544;BME280;68994;47.176;7.534;2023-04-24T10:02:58;95601.47;;;22.69;28.89
79544;BME280;68994;47.176;7.534;2023-04-24T10:05:29;95602.88;;;23.20;31.82
79544;BME280;68994;47.176;7.534;2023-04-24T10:07:57;95604.72;;;22.75;30.42
79544;BME280;68994;47.176;7.534;2023-04-24T10:10:25;95613.44;;;22.40;27.99
79544;BME280;68994;47.176;7.534;2023-04-24T10:12:53;95611.88;;;20.44;32.29
79544;BME280;68994;47.176;7.534;2023-04-24T10:15:21;95616.34;;;21.03;32.67
79544;BME280;68994;47.176;7.534;2023-04-24T10:17:48;95622.41;;;19.38;32.32
79544;BME280;68994;47.176;7.534;2023-04-24T10:20:19;95630.78;;;17.17;37.34
79544;BME280;68994;47.176;7.534;2023-04-24T10:22:48;95632.03;;;18.40;35.13
79544;BME280;68994;47.176;7.534;2023-04-24T10:25:16;95638.97;;;18.23;33.63
79544;BME280;68994;47.176;7.534;2023-04-24T10:27:45;95640.16;;;18.83;34.50
79544;BME280;68994;47.176;7.534;2023-04-24T10:30:13;95641.56;;;19.72;34.37
79544;BME280;68994;47.176;7.534;2023-04-24T10:32:39;95644.34;;;20.23;32.28
79544;BME280;68994;47.176;7.534;2023-04-24T10:35:07;95643.94;;;20.63;32.96
79544;BME280;68994;47.176;7.534;2023-04-24T10:37:37;95630.69;;;19.89;33.12
79544;BME280;68994;47.176;7.534;2023-04-24T10:40:05;95623.13;;;19.18;34.38
79544;BME280;68994;47.176;7.534;2023-04-24T10:42:33;95633.47;;;19.63;34.97
79544;BME280;68994;47.176;7.534;2023-04-24T10:45:04;95625.09;;;20.45;31.70
79544;BME280;68994;47.176;7.534;2023-04-24T10:47:39;95618.25;;;20.69;32.35
79544;BME280;68994;47.176;7.534;2023-04-24T10:50:08;95614.34;;;21.12;30.87
79544;BME280;68994;47.176;7.534;2023-04-24T10:52:45;95614.47;;;21.61;30.69
79544;BME280;68994;47.176;7.534;2023-04-24T10:55:12;95609.50;;;21.76;28.52
79544;BME280;68994;47.176;7.534;2023-04-24T10:58:03;95610.66;;;21.41;31.08
79544;BME280;68994;47.176;7.534;2023-04-24T11:00:31;95611.75;;;21.98;24.69
79544;BME280;68994;47.176;7.534;2023-04-24T11:02:58;95608.13;;;22.07;25.59
79544;BME280;68994;47.176;7.534;2023-04-24T11:05:49;95599.97;;;22.31;24.69
79544;BME280;68994;47.176;7.534;2023-04-24T11:08:28;95623.63;;;20.27;30.11
79544;BME280;68994;47.176;7.534;2023-04-24T11:11:09;95614.22;;;18.82;34.19
79544;BME280;68994;47.176;7.534;2023-04-24T11:14:01;95624.72;;;17.83;34.00
79544;BME280;68994;47.176;7.534;2023-04-24T11:16:32;95627.03;;;16.59;39.39
79544;BME280;68994;47.176;7.534;2023-04-24T11:19:04;95624.00;;;16.01;40.31
79544;BME280;68994;47.176;7.534;2023-04-24T11:21:32;95633.66;;;15.88;41.97
79544;BME280;68994;47.176;7.534;2023-04-24T11:24:25;95619.97;;;15.43;38.63
79544;BME280;68994;47.176;7.534;2023-04-24T11:26:53;95620.06;;;15.38;45.16
79544;BME280;68994;47.176;7.534;2023-04-24T11:29:21;95620.16;;;15.47;41.63
79544;BME280;68994;47.176;7.534;2023-04-24T11:31:49;95628.44;;;16.20;41.16
79544;BME280;68994;47.176;7.534;2023-04-24T11:34:17;95616.78;;;16.61;38.25
79544;BME280;68994;47.176;7.534;2023-04-24T11:36:44;95633.84;;;15.92;35.54
79544;BME280;68994;47.176;7.534;2023-04-24T11:39:11;95622.91;;;15.00;38.78
79544;BME280;68994;47.176;7.534;2023-04-24T11:41:38;95635.25;;;14.68;41.54
79544;BME280;68994;47.176;7.534;2023-04-24T11:44:06;95634.63;;;14.52;41.41
79544;BME280;68994;47.176;7.534;2023-04-24T11:46:33;95634.69;;;14.47;42.38
79544;BME280;68994;47.176;7.534;2023-04-24T11:49:01;95635.84;;;14.41;43.08
79544;BME280;68994;47.176;7.534;2023-04-24T11:51:27;95633.81;;;14.33;43.21
79544;BME280;68994;47.176;7.534;2023-04-24T11:53:55;95640.31;;;14.32;40.40
79544;BME280;68994;47.176;7.534;2023-04-24T11:56:22;95631.72;;;14.10;40.37
79544;BME280;68994;47.176;7.534;2023-04-24T11:58:51;95636.38;;;13.81;41.34
79544;BME280;68994;47.176;7.534;2023-04-24T12:01:18;95640.94;;;13.80;40.92
79544;BME280;68994;47.176;7.534;2023-04-24T12:03:47;95623.72;;;13.86;42.05
79544;BME280;68994;47.176;7.534;2023-04-24T12:06:17;95624.38;;;13.97;40.57
79544;BME280;68994;47.176;7.534;2023-04-24T12:08:47;95625.47;;;13.96;40.65
79544;BME280;68994;47.176;7.534;2023-04-24T12:11:15;95630.84;;;13.96;40.20
79544;BME280;68994;47.176;7.534;2023-04-24T12:13:44;95624.16;;;13.94;42.25
79544;BME280;68994;47.176;7.534;2023-04-24T12:16:11;95631.00;;;13.81;41.66
79544;BME280;68994;47.176;7.534;2023-04-24T12:18:42;95636.03;;;13.87;41.88
79544;BME280;68994;47.176;7.534;2023-04-24T12:21:17;95629.75;;;13.97;41.87
79544;BME280;68994;47.176;7.534;2023-04-24T12:23:44;95625.19;;;14.36;41.02
79544;BME280;68994;47.176;7.534;2023-04-24T12:26:11;95613.16;;;14.52;41.39
79544;BME280;68994;47.176;7.534;2023-04-24T12:28:38;95609.22;;;16.12;38.56
79544;BME280;68994;47.176;7.534;2023-04-24T12:31:06;95605.56;;;16.67;37.40
79544;BME280;68994;47.176;7.534;2023-04-24T12:33:33;95618.22;;;15.94;35.64
79544;BME280;68994;47.176;7.534;2023-04-24T12:36:00;95618.91;;;16.00;38.55
79544;BME280;68994;47.176;7.534;2023-04-24T12:38:28;95612.81;;;16.08;37.58
79544;BME280;68994;47.176;7.534;2023-04-24T12:41:02;95608.06;;;15.91;37.05
79544;BME280;68994;47.176;7.534;2023-04-24T12:43:30;95618.19;;;15.52;38.36
79544;BME280;68994;47.176;7.534;2023-04-24T12:45:56;95603.25;;;15.32;38.42
79544;BME280;68994;47.176;7.534;2023-04-24T12:48:24;95613.91;;;15.37;41.56
79544;BME280;68994;47.176;7.534;2023-04-24T12:50:51;95606.06;;;15.69;39.23
79544;BME280;68994;47.176;7.534;2023-04-24T12:53:17;95605.97;;;15.88;37.88
79544;BME280;68994;47.176;7.534;2023-04-24T12:55:45;95611.72;;;15.95;36.21
79544;BME280;68994;47.176;7.534;2023-04-24T12:58:18;95598.53;;;17.03;35.36
79544;BME280;68994;47.176;7.534;2023-04-24T13:00:45;95595.69;;;17.39;37.08
79544;BME280;68994;47.176;7.534;2023-04-24T13:03:12;95597.91;;;17.37;32.64
79544;BME280;68994;47.176;7.534;2023-04-24T13:05:38;95593.56;;;17.68;33.73
79544;BME280;68994;47.176;7.534;2023-04-24T13:08:05;95612.63;;;18.55;34.71
79544;BME280;68994;47.176;7.534;2023-04-24T13:10:32;95616.13;;;18.82;32.38